Time;durP1;ratioP1;P1;durP2;ratioP2;P2;SDS_P1;SDS_P2;PMS_P1;PMS_P2;Temp;Humidity;BMP_temperature;BMP_pressure;BME280_temperature;BME280_humidity;BME280_pressure;Samples;Min_cycle;Max_cycle;Signal;HPM_P1;HPM_P2
2021/11/23 00:01:48;;;;;;;0.20;0.20;;;;;;;3.08;100.00;101859.75;5060440;28;20040;-83
2021/11/23 00:04:21;;;;;;;0.20;0.20;;;;;;;3.13;100.00;101862.66;5066105;28;20063;-82
2021/11/23 00:06:55;;;;;;;0.20;0.20;;;;;;;3.17;100.00;101863.91;5070514;28;20051;-81
2021/11/23 00:09:29;;;;;;;0.20;0.20;;;;;;;3.15;100.00;101860.59;5063101;28;20057;-83
2021/11/23 00:12:02;;;;;;;0.20;0.20;;;;;;;3.15;100.00;101852.53;5064205;28;20053;-83
2021/11/23 00:14:30;;;;;;;0.20;0.20;;;;;;;3.25;100.00;101852.16;5067627;28;20044;-82
2021/11/23 00:17:04;;;;;;;0.20;0.20;;;;;;;3.17;100.00;101855.84;5067252;28;20052;-81
2021/11/23 00:19:32;;;;;;;0.20;0.20;;;;;;;3.21;100.00;101848.22;5070773;28;20519;-82
2021/11/23 00:22:02;;;;;;;0.20;0.20;;;;;;;3.24;100.00;101855.88;5072051;28;20436;-83
2021/11/23 00:24:31;;;;;;;0.20;0.20;;;;;;;3.22;100.00;101847.19;5068734;28;20401;-83
2021/11/23 00:26:59;;;;;;;0.20;0.20;;;;;;;3.37;100.00;101855.91;5060542;28;20048;-83
2021/11/23 00:29:32;;;;;;;0.20;0.20;;;;;;;3.31;100.00;101864.78;5065985;28;20055;-82
2021/11/23 00:32:01;;;;;;;0.30;0.30;;;;;;;3.31;100.00;101864.78;5068844;28;20059;-82
2021/11/23 00:34:29;;;;;;;0.28;0.28;;;;;;;3.29;100.00;101868.72;5060224;28;20052;-83
2021/11/23 00:37:04;;;;;;;0.20;0.20;;;;;;;3.39;100.00;101872.69;5064623;28;20040;-82
2021/11/23 00:39:37;;;;;;;0.10;0.10;;;;;;;3.36;100.00;101869.56;5076378;28;20048;-82
2021/11/23 00:42:06;;;;;;;0.20;0.20;;;;;;;3.36;100.00;101870.41;5063848;28;20077;-83
2021/11/23 00:44:34;;;;;;;0.30;0.30;;;;;;;3.49;100.00;101856.13;5063882;28;20053;-81
2021/11/23 00:47:07;;;;;;;0.20;0.20;;;;;;;3.63;100.00;101873.13;5065543;28;20048;-82
2021/11/23 00:49:40;;;;;;;0.20;0.20;;;;;;;3.63;100.00;101873.13;5061254;28;20068;-83
2021/11/23 00:52:15;;;;;;;0.20;0.20;;;;;;;3.61;100.00;101856.38;5068143;28;20040;-82
2021/11/23 00:54:43;;;;;;;0.20;0.20;;;;;;;3.60;100.00;101867.34;5068167;28;20040;-82
2021/11/23 00:57:17;;;;;;;0.20;0.20;;;;;;;3.57;100.00;101855.94;5066722;28;20048;-83
2021/11/23 00:59:50;;;;;;;0.20;0.20;;;;;;;3.65;100.00;101867.59;5070244;28;20456;-82
2021/11/23 01:02:18;;;;;;;0.20;0.20;;;;;;;3.68;100.00;101862.59;5062650;28;20075;-83
2021/11/23 01:04:51;;;;;;;0.20;0.20;;;;;;;3.69;100.00;101866.97;5066142;28;20055;-80
2021/11/23 01:07:26;;;;;;;0.20;0.20;;;;;;;3.74;100.00;101851.03;5068668;28;20059;-80
2021/11/23 01:09:59;;;;;;;0.20;0.20;;;;;;;3.84;100.00;101855.16;5066678;28;20048;-81
2021/11/23 01:12:28;;;;;;;0.20;0.20;;;;;;;3.85;100.00;101859.50;5059743;28;20388;-81
2021/11/23 01:15:01;;;;;;;0.30;0.30;;;;;;;3.90;100.00;101865.94;5067937;28;20044;-80
2021/11/23 01:17:35;;;;;;;0.20;0.20;;;;;;;3.90;100.00;101865.13;5074441;28;20044;-81
2021/11/23 01:20:11;;;;;;;0.20;0.20;;;;;;;3.97;100.00;101867.81;5069612;28;20044;-81
2021/11/23 01:22:42;;;;;;;0.10;0.10;;;;;;;4.05;100.00;101860.34;5066127;28;20048;-80
2021/11/23 01:25:16;;;;;;;0.20;0.20;;;;;;;4.08;100.00;101861.81;5059646;28;20504;-80
2021/11/23 01:27:45;;;;;;;0.20;0.20;;;;;;;4.05;100.00;101879.22;5067218;28;20045;-81
2021/11/23 01:30:18;;;;;;;0.20;0.20;;;;;;;4.06;100.00;101877.34;5068479;28;20403;-81
2021/11/23 01:32:46;;;;;;;0.20;0.20;;;;;;;4.17;100.00;101870.50;5065987;28;20067;-81
2021/11/23 01:35:21;;;;;;;0.20;0.20;;;;;;;4.10;100.00;101857.03;5067328;28;20048;-81
2021/11/23 01:37:50;;;;;;;0.20;0.20;;;;;;;4.14;100.00;101849.38;5063349;28;20052;-81
2021/11/23 01:40:24;;;;;;;0.20;0.20;;;;;;;4.21;100.00;101852.88;5069218;28;20503;-81
2021/11/23 01:42:57;;;;;;;0.20;0.20;;;;;;;4.16;100.00;101850.84;5065104;28;20049;-81
2021/11/23 01:45:30;;;;;;;0.20;0.20;;;;;;;4.12;100.00;101848.78;5062451;28;20076;-81
2021/11/23 01:48:04;;;;;;;0.25;0.25;;;;;;;4.14;100.00;101844.81;5063091;28;20064;-81
2021/11/23 01:50:38;;;;;;;0.30;0.30;;;;;;;4.22;100.00;101858.06;5065510;28;20808;-81
2021/11/23 01:53:13;;;;;;;0.20;0.20;;;;;;;4.19;100.00;101847.72;5068422;28;20055;-81
2021/11/23 01:55:46;;;;;;;0.20;0.20;;;;;;;4.32;100.00;101859.53;5066752;28;20385;-82
2021/11/23 01:58:15;;;;;;;0.20;0.20;;;;;;;4.34;100.00;101860.97;5058018;28;20048;-81
2021/11/23 02:00:48;;;;;;;0.20;0.20;;;;;;;4.36;100.00;101850.78;5068699;28;20060;-81
2021/11/23 02:03:22;;;;;;;0.20;0.20;;;;;;;4.42;100.00;101857.25;5060080;28;20044;-82
2021/11/23 02:05:50;;;;;;;0.22;0.22;;;;;;;4.45;100.00;101853.28;5061745;28;20041;-81
2021/11/23 02:08:20;;;;;;;0.20;0.20;;;;;;;4.49;100.00;101857.22;5066081;28;20059;-81
2021/11/23 02:10:48;;;;;;;0.20;0.20;;;;;;;4.65;100.00;101856.75;5078752;28;20052;-81
2021/11/23 02:13:22;;;;;;;0.20;0.20;;;;;;;4.57;100.00;101859.69;5073372;28;20487;-83
2021/11/23 02:15:56;;;;;;;0.20;0.20;;;;;;;4.57;100.00;101862.38;5067420;28;20056;-81
2021/11/23 02:18:30;;;;;;;0.20;0.20;;;;;;;4.60;100.00;101849.31;5061888;28;20040;-81
2021/11/23 02:21:00;;;;;;;0.20;0.20;;;;;;;4.59;100.00;101855.75;5059736;28;20057;-81
2021/11/23 02:23:34;;;;;;;0.20;0.20;;;;;;;4.57;100.00;101847.06;5067295;28;20048;-81
2021/11/23 02:26:07;;;;;;;0.20;0.20;;;;;;;4.63;100.00;101849.91;5065426;28;20052;-81
2021/11/23 02:28:41;;;;;;;0.20;0.20;;;;;;;4.64;100.00;101843.50;5065810;28;20044;-81
2021/11/23 02:31:14;;;;;;;0.28;0.28;;;;;;;4.69;100.00;101839.13;5065123;28;20060;-83
2021/11/23 02:33:48;;;;;;;0.10;0.10;;;;;;;4.72;100.00;101846.81;5074514;28;20056;-82
2021/11/23 02:36:23;;;;;;;0.20;0.20;;;;;;;4.73;100.00;101840.34;5066494;28;20457;-81
2021/11/23 02:38:52;;;;;;;0.30;0.30;;;;;;;4.76;100.00;101848.03;5065846;28;20057;-81
2021/11/23 02:41:25;;;;;;;0.20;0.20;;;;;;;4.69;100.00;101849.91;5068512;28;20049;-81
2021/11/23 02:43:59;;;;;;;0.20;0.20;;;;;;;4.79;100.00;101848.63;5070563;28;20396;-81
2021/11/23 02:46:32;;;;;;;0.20;0.20;;;;;;;4.79;100.00;101844.06;5072663;28;20040;-81
2021/11/23 02:49:06;;;;;;;0.28;0.28;;;;;;;4.82;100.00;101838.28;5062105;28;20070;-81
2021/11/23 02:51:40;;;;;;;0.28;0.28;;;;;;;4.88;100.00;101832.00;5061006;28;20048;-81
2021/11/23 02:54:09;;;;;;;0.20;0.20;;;;;;;4.80;100.00;101816.06;5065721;28;20072;-82
2021/11/23 02:56:42;;;;;;;0.28;0.28;;;;;;;4.84;100.00;101830.78;5070773;28;20480;-81
2021/11/23 02:59:10;;;;;;;0.20;0.20;;;;;;;4.85;100.00;101835.13;5067297;28;20049;-81
2021/11/23 03:01:38;;;;;;;0.20;0.20;;;;;;;4.82;100.00;101823.94;5066071;28;20040;-81
2021/11/23 03:04:17;;;;;;;0.30;0.30;;;;;;;4.90;100.00;101826.41;5073723;28;20059;-81
2021/11/23 03:06:48;;;;;;;0.20;0.20;;;;;;;4.88;100.00;101825.78;5068892;28;20037;-80
2021/11/23 03:09:21;;;;;;;0.22;0.22;;;;;;;4.88;100.00;101818.53;5061886;28;20053;-81
2021/11/23 03:11:54;;;;;;;0.20;0.20;;;;;;;4.98;100.00;101818.06;5074731;28;20064;-81
2021/11/23 03:14:27;;;;;;;0.20;0.20;;;;;;;5.01;100.00;101817.63;5069825;28;20049;-81
2021/11/23 03:16:56;;;;;;;0.20;0.20;;;;;;;5.15;100.00;101812.19;5070929;28;20051;-81
2021/11/23 03:19:24;;;;;;;0.20;0.20;;;;;;;5.09;100.00;101814.69;5066940;28;20052;-82
2021/11/23 03:21:59;;;;;;;0.20;0.20;;;;;;;5.10;100.00;101810.13;5066475;28;20052;-81
2021/11/23 03:24:32;;;;;;;0.30;0.30;;;;;;;5.10;100.00;101802.03;5068049;28;20048;-82
2021/11/23 03:27:07;;;;;;;0.20;0.20;;;;;;;5.13;100.00;101804.31;5067784;28;20036;-81
2021/11/23 03:29:41;;;;;;;0.20;0.20;;;;;;;5.11;100.00;101801.81;5072819;28;20052;-82
2021/11/23 03:32:11;;;;;;;0.20;0.20;;;;;;;5.05;100.00;101802.66;5068064;28;20554;-82
2021/11/23 03:34:40;;;;;;;0.20;0.20;;;;;;;5.10;100.00;101804.75;5074097;28;20048;-82
2021/11/23 03:37:17;;;;;;;0.30;0.30;;;;;;;5.07;100.00;101794.38;5070773;28;20472;-82
2021/11/23 03:39:46;;;;;;;0.30;0.30;;;;;;;5.11;100.00;101801.00;5070607;28;20049;-81
2021/11/23 03:42:20;;;;;;;0.20;0.20;;;;;;;5.15;100.00;101804.09;5066608;28;20059;-79
2021/11/23 03:44:57;;;;;;;0.20;0.20;;;;;;;5.18;100.00;101796.41;5062836;28;20052;-81
2021/11/23 03:47:33;;;;;;;0.20;0.20;;;;;;;5.17;100.00;101802.00;5065431;28;20040;-82
2021/11/23 03:50:01;;;;;;;0.20;0.20;;;;;;;5.20;100.00;101799.69;5069453;28;20056;-81
2021/11/23 03:52:36;;;;;;;0.20;0.20;;;;;;;5.25;100.00;101799.88;5063842;28;20057;-82
2021/11/23 03:55:14;;;;;;;0.20;0.20;;;;;;;5.20;100.00;101805.09;5072959;28;20045;-82
2021/11/23 03:57:50;;;;;;;0.25;0.25;;;;;;;5.19;100.00;101803.44;5066205;28;20045;-82
2021/11/23 04:00:20;;;;;;;0.30;0.30;;;;;;;5.29;100.00;101805.69;5066581;28;20041;-81
2021/11/23 04:02:54;;;;;;;0.22;0.22;;;;;;;5.31;100.00;101802.75;5064052;28;20048;-81
2021/11/23 04:05:23;;;;;;;0.28;0.28;;;;;;;5.24;100.00;101794.69;5068373;28;20421;-82
2021/11/23 04:07:58;;;;;;;0.22;0.22;;;;;;;5.32;100.00;101790.91;5064969;28;20053;-81
2021/11/23 04:10:31;;;;;;;0.28;0.28;;;;;;;5.32;100.00;101791.75;5069874;28;20048;-81
2021/11/23 04:13:04;;;;;;;0.25;0.25;;;;;;;5.27;100.00;101796.94;5062975;28;20504;-81
2021/11/23 04:15:38;;;;;;;0.30;0.30;;;;;;;5.19;100.00;101789.97;5077673;28;20045;-81
2021/11/23 04:18:12;;;;;;;0.20;0.20;;;;;;;5.25;100.00;101788.25;5062817;28;20977;-82
2021/11/23 04:20:42;;;;;;;0.20;0.20;;;;;;;5.22;100.00;101781.44;5068570;28;20131;-82
2021/11/23 04:23:12;;;;;;;0.20;0.20;;;;;;;5.23;100.00;101788.47;5065389;28;20508;-82
2021/11/23 04:25:45;;;;;;;0.30;0.30;;;;;;;5.31;100.00;101800.88;5067611;28;20591;-83
2021/11/23 04:28:18;;;;;;;0.30;0.30;;;;;;;5.22;100.00;101805.72;5067048;28;20044;-83
2021/11/23 04:30:46;;;;;;;0.20;0.20;;;;;;;5.29;100.00;101813.78;5069081;28;20036;-83
2021/11/23 04:33:20;;;;;;;0.20;0.20;;;;;;;5.25;100.00;101813.38;5071234;28;20049;-83
2021/11/23 04:35:53;;;;;;;0.30;0.30;;;;;;;5.23;100.00;101812.78;5064558;28;20052;-82
2021/11/23 04:38:23;;;;;;;0.30;0.30;;;;;;;5.25;100.00;101816.06;5062689;28;20051;-81
2021/11/23 04:40:56;;;;;;;0.20;0.20;;;;;;;5.28;100.00;101822.91;5062900;28;20416;-82
2021/11/23 04:43:30;;;;;;;0.20;0.20;;;;;;;5.33;100.00;101817.69;5071831;28;20103;-84
2021/11/23 04:45:59;;;;;;;0.20;0.20;;;;;;;5.37;100.00;101826.19;5066380;28;20396;-81
2021/11/23 04:48:32;;;;;;;0.20;0.20;;;;;;;5.40;100.00;101839.22;5063968;28;20727;-82
2021/11/23 04:51:05;;;;;;;0.28;0.28;;;;;;;5.40;100.00;101840.06;5067140;28;20059;-81
2021/11/23 04:53:35;;;;;;;0.30;0.30;;;;;;;5.40;100.00;101842.78;5069425;28;20055;-82
2021/11/23 04:56:03;;;;;;;0.30;0.30;;;;;;;5.39;100.00;101838.41;5067220;28;20071;-81
2021/11/23 04:58:37;;;;;;;0.20;0.20;;;;;;;5.42;100.00;101839.84;5064105;28;20029;-82
2021/11/23 05:01:10;;;;;;;0.30;0.30;;;;;;;5.34;100.00;101840.94;5059396;28;20048;-82
2021/11/23 05:03:38;;;;;;;0.28;0.28;;;;;;;5.41;100.00;101839.03;5064565;28;20079;-82
2021/11/23 05:06:06;;;;;;;0.30;0.30;;;;;;;5.24;100.00;101825.19;5074415;28;20047;-82
2021/11/23 05:08:41;;;;;;;0.30;0.30;;;;;;;5.33;100.00;101828.50;5064219;28;20048;-82
2021/11/23 05:11:15;;;;;;;0.30;0.30;;;;;;;5.34;100.00;101827.44;5066882;28;20048;-83
2021/11/23 05:13:44;;;;;;;0.20;0.20;;;;;;;5.27;100.00;101824.78;5074284;28;20083;-82
2021/11/23 05:16:12;;;;;;;0.20;0.20;;;;;;;5.23;100.00;101823.56;5069443;28;20412;-82
2021/11/23 05:18:46;;;;;;;0.30;0.30;;;;;;;5.25;100.00;101829.56;5068398;28;20049;-82
2021/11/23 05:21:19;;;;;;;0.20;0.20;;;;;;;5.22;100.00;101837.25;5061518;28;20056;-82
2021/11/23 05:23:54;;;;;;;0.15;0.15;;;;;;;5.18;100.00;101825.22;5063300;28;20052;-82
2021/11/23 05:26:27;;;;;;;0.20;0.20;;;;;;;5.13;100.00;101809.69;5068489;28;20072;-81
2021/11/23 05:28:56;;;;;;;0.20;0.20;;;;;;;5.18;100.00;101819.84;5062062;28;20063;-82
2021/11/23 05:31:29;;;;;;;0.20;0.20;;;;;;;5.18;100.00;101828.78;5069548;28;20044;-81
2021/11/23 05:34:02;;;;;;;0.20;0.20;;;;;;;5.17;100.00;101819.03;5060350;28;20070;-82
2021/11/23 05:36:35;;;;;;;0.20;0.20;;;;;;;5.21;100.00;101822.94;5059533;28;20058;-82
2021/11/23 05:39:10;;;;;;;0.22;0.22;;;;;;;5.25;100.00;101829.56;5067079;28;20044;-82
2021/11/23 05:41:44;;;;;;;0.20;0.20;;;;;;;5.28;100.00;101818.31;5057793;28;20052;-82
2021/11/23 05:44:18;;;;;;;0.20;0.20;;;;;;;5.24;100.00;101833.28;5062199;28;20788;-83
2021/11/23 05:46:46;;;;;;;0.20;0.20;;;;;;;5.15;100.00;101831.91;5061627;28;20056;-82
2021/11/23 05:49:19;;;;;;;0.30;0.30;;;;;;;5.02;100.00;101835.47;5069358;28;20043;-82
2021/11/23 05:51:54;;;;;;;0.25;0.25;;;;;;;5.04;100.00;101833.41;5071061;28;20040;-81
2021/11/23 05:54:29;;;;;;;0.20;0.20;;;;;;;5.01;100.00;101839.22;5072211;28;20056;-82
2021/11/23 05:57:02;;;;;;;0.20;0.20;;;;;;;4.95;100.00;101842.78;5079373;28;20047;-82
2021/11/23 05:59:30;;;;;;;0.30;0.30;;;;;;;4.98;100.00;101841.53;5069647;28;20043;-81
2021/11/23 06:02:04;;;;;;;0.10;0.10;;;;;;;5.01;100.00;101841.91;5069424;28;20047;-82
2021/11/23 06:04:32;;;;;;;0.10;0.10;;;;;;;5.03;100.00;101857.91;5070773;28;20044;-82
2021/11/23 06:07:05;;;;;;;0.30;0.30;;;;;;;5.03;100.00;101852.50;5073676;28;20049;-84
2021/11/23 06:09:40;;;;;;;0.20;0.20;;;;;;;5.02;100.00;101857.06;5085260;28;20060;-82
2021/11/23 06:12:09;;;;;;;0.20;0.20;;;;;;;5.06;100.00;101861.00;5074179;28;20474;-83
2021/11/23 06:14:42;;;;;;;0.20;0.20;;;;;;;5.11;100.00;101866.59;5066889;28;20052;-84
2021/11/23 06:17:15;;;;;;;0.30;0.30;;;;;;;5.09;100.00;101859.75;5072244;28;20413;-83
2021/11/23 06:19:49;;;;;;;0.20;0.20;;;;;;;5.15;100.00;101869.69;5065224;28;20045;-83
2021/11/23 06:22:23;;;;;;;0.30;0.30;;;;;;;5.09;100.00;101865.13;5072980;28;20055;-82
2021/11/23 06:24:53;;;;;;;0.20;0.20;;;;;;;5.14;100.00;101867.19;5073035;28;20052;-83
2021/11/23 06:27:26;;;;;;;0.20;0.20;;;;;;;5.16;100.00;101868.63;5066372;28;20060;-83
2021/11/23 06:30:00;;;;;;;0.22;0.22;;;;;;;5.16;100.00;101859.72;5074401;28;20052;-83
2021/11/23 06:32:33;;;;;;;0.30;0.30;;;;;;;5.21;100.00;101859.91;5069353;28;20060;-83
2021/11/23 06:35:02;;;;;;;0.30;0.30;;;;;;;5.17;100.00;101862.19;5070136;28;20045;-83
2021/11/23 06:37:35;;;;;;;0.30;0.30;;;;;;;5.15;100.00;101869.69;5064799;28;20048;-84
2021/11/23 06:40:11;;;;;;;0.20;0.20;;;;;;;5.19;100.00;101864.69;5080784;28;20040;-84
2021/11/23 06:42:44;;;;;;;0.22;0.22;;;;;;;5.20;100.00;101864.47;5064585;28;20049;-82
2021/11/23 06:45:18;;;;;;;0.20;0.20;;;;;;;5.14;100.00;101877.97;5060538;28;20052;-83
2021/11/23 06:47:46;;;;;;;0.20;0.20;;;;;;;5.09;100.00;101865.13;5061228;28;20052;-83
2021/11/23 06:50:15;;;;;;;0.20;0.20;;;;;;;5.11;100.00;101880.06;5061848;28;20057;-84
2021/11/23 06:52:48;;;;;;;0.30;0.30;;;;;;;5.16;100.00;101878.59;5060321;28;20053;-83
2021/11/23 06:55:18;;;;;;;0.20;0.20;;;;;;;5.13;100.00;101892.53;5062822;28;20111;-83
2021/11/23 06:57:46;;;;;;;0.20;0.20;;;;;;;5.09;100.00;101889.41;5060864;28;20053;-82
2021/11/23 07:00:15;;;;;;;0.13;0.13;;;;;;;5.05;100.00;101878.22;5061156;28;20044;-83
2021/11/23 07:02:48;;;;;;;0.30;0.30;;;;;;;5.01;100.00;101887.78;5063637;28;20057;-83
2021/11/23 07:05:21;;;;;;;0.20;0.20;;;;;;;5.02;100.00;101886.75;5064781;28;20044;-83
2021/11/23 07:07:50;;;;;;;0.30;0.30;;;;;;;4.91;100.00;101884.72;5069163;28;20049;-83
2021/11/23 07:10:25;;;;;;;0.30;0.30;;;;;;;4.88;100.00;101899.44;5071616;28;20036;-83
2021/11/23 07:12:59;;;;;;;0.30;0.30;;;;;;;4.81;100.00;101890.56;5066130;28;20052;-83
2021/11/23 07:15:32;;;;;;;0.28;0.28;;;;;;;4.76;100.00;101891.19;5073702;28;20072;-83
2021/11/23 07:18:00;;;;;;;0.30;0.30;;;;;;;4.73;100.00;101904.25;5057683;28;20061;-83
2021/11/23 07:20:34;;;;;;;0.20;0.20;;;;;;;4.68;100.00;101902.19;5071176;28;20481;-84
2021/11/23 07:23:07;;;;;;;0.32;0.32;;;;;;;4.66;100.00;101908.84;5064860;28;20060;-83
2021/11/23 07:25:42;;;;;;;0.20;0.20;;;;;;;4.63;100.00;101907.38;5069274;28;20543;-83
2021/11/23 07:28:15;;;;;;;0.20;0.20;;;;;;;4.64;100.00;101897.41;5065796;28;20095;-83
2021/11/23 07:30:49;;;;;;;0.30;0.30;;;;;;;4.68;100.00;101894.13;5063944;28;20043;-83
2021/11/23 07:33:22;;;;;;;0.20;0.20;;;;;;;4.60;100.00;101897.84;5069290;28;20045;-83
2021/11/23 07:35:51;;;;;;;0.30;0.30;;;;;;;4.56;100.00;101907.41;5064234;28;20048;-83
2021/11/23 07:38:24;;;;;;;0.20;0.20;;;;;;;4.57;100.00;101909.06;5061292;28;20052;-83
2021/11/23 07:40:54;;;;;;;0.25;0.25;;;;;;;4.56;100.00;101910.09;5066163;28;20052;-83
2021/11/23 07:43:22;;;;;;;0.20;0.20;;;;;;;4.56;100.00;101914.66;5064826;28;20496;-83
2021/11/23 07:45:50;;;;;;;0.28;0.28;;;;;;;4.51;100.00;101892.88;5071648;28;20515;-84
2021/11/23 07:48:23;;;;;;;0.20;0.20;;;;;;;4.50;100.00;101893.91;5060663;28;20045;-82
2021/11/23 07:50:56;;;;;;;0.30;0.30;;;;;;;4.56;100.00;101920.88;5070376;28;20071;-83
2021/11/23 07:53:30;;;;;;;0.30;0.30;;;;;;;4.67;100.00;101910.47;5069301;28;20047;-82
2021/11/23 07:56:00;;;;;;;0.20;0.20;;;;;;;4.61;100.00;101917.53;5067072;28;20044;-80
2021/11/23 07:58:33;;;;;;;0.20;0.20;;;;;;;4.64;100.00;101924.38;5058144;28;20044;-82
2021/11/23 08:01:06;;;;;;;0.30;0.30;;;;;;;4.58;100.00;101917.97;5065412;28;20059;-83
2021/11/23 08:03:34;;;;;;;0.38;0.30;;;;;;;4.58;100.00;101915.25;5065898;28;20049;-83
2021/11/23 08:06:08;;;;;;;0.22;0.22;;;;;;;4.53;100.00;101913.22;5066653;28;20048;-81
2021/11/23 08:08:42;;;;;;;0.20;0.20;;;;;;;4.66;100.00;101917.75;5060366;28;20409;-82
2021/11/23 08:11:13;;;;;;;0.20;0.20;;;;;;;4.66;100.00;101925.84;5065043;28;20055;-83
2021/11/23 08:13:46;;;;;;;0.25;0.25;;;;;;;4.64;100.00;101924.38;5076222;28;20045;-81
2021/11/23 08:16:19;;;;;;;0.20;0.20;;;;;;;4.69;100.00;101935.38;5062137;28;20045;-82
2021/11/23 08:18:47;;;;;;;0.30;0.30;;;;;;;4.76;100.00;101936.19;5060025;28;20485;-83
2021/11/23 08:21:20;;;;;;;0.20;0.20;;;;;;;4.77;100.00;101940.56;5065493;28;20048;-83
2021/11/23 08:23:54;;;;;;;0.20;0.20;;;;;;;4.79;100.00;101941.16;5065612;28;20052;-84
2021/11/23 08:26:28;;;;;;;0.30;0.30;;;;;;;4.82;100.00;101934.53;5065287;28;20064;-84
2021/11/23 08:28:56;;;;;;;0.30;0.30;;;;;;;4.88;100.00;101941.78;5067432;28;21732;-84
2021/11/23 08:31:29;;;;;;;0.20;0.20;;;;;;;4.95;100.00;101942.59;5063528;28;20048;-89
2021/11/23 08:34:05;;;;;;;0.20;0.20;;;;;;;4.91;100.00;101942.19;5055127;28;20091;-84
2021/11/23 08:36:38;;;;;;;0.20;0.20;;;;;;;4.93;100.00;101942.81;5058917;28;20052;-84
2021/11/23 08:39:11;;;;;;;0.30;0.30;;;;;;;4.97;100.00;101945.91;5060793;28;20784;-85
2021/11/23 08:41:47;;;;;;;0.35;0.35;;;;;;;4.87;100.00;101932.84;5053201;28;20053;-85
2021/11/23 08:44:20;;;;;;;0.20;0.20;;;;;;;4.94;100.00;101943.63;5055945;28;20059;-84
2021/11/23 08:46:53;;;;;;;0.20;0.20;;;;;;;4.97;100.00;101943.19;5055553;28;20052;-85
2021/11/23 08:49:21;;;;;;;0.20;0.20;;;;;;;5.01;100.00;101940.91;5058524;28;20048;-83
2021/11/23 08:51:52;;;;;;;0.30;0.30;;;;;;;5.03;100.00;101944.25;5060131;28;20051;-83
2021/11/23 08:54:26;;;;;;;0.30;0.30;;;;;;;5.06;100.00;101933.03;5055928;28;20791;-85
2021/11/23 08:57:02;;;;;;;0.25;0.25;;;;;;;5.13;100.00;101924.91;5057127;28;20064;-83
2021/11/23 08:59:40;;;;;;;0.20;0.20;;;;;;;5.17;100.00;101932.38;5055901;28;20060;-84
2021/11/23 09:02:15;;;;;;;0.20;0.20;;;;;;;5.26;100.00;101935.63;5055465;28;20055;-84
2021/11/23 09:04:49;;;;;;;0.20;0.20;;;;;;;5.35;100.00;101941.66;5055561;28;20063;-84
2021/11/23 09:07:20;;;;;;;0.25;0.25;;;;;;;5.34;100.00;101940.81;5055198;28;20056;-84
2021/11/23 09:09:49;;;;;;;0.22;0.22;;;;;;;5.33;100.00;101943.72;5072457;28;20122;-84
2021/11/23 09:12:23;;;;;;;0.30;0.30;;;;;;;5.41;100.00;101946.19;5056106;28;20057;-83
2021/11/23 09:14:57;;;;;;;0.20;0.20;;;;;;;5.47;100.00;101949.91;5059826;28;20052;-83
2021/11/23 09:17:30;;;;;;;0.30;0.30;;;;;;;5.54;100.00;101956.94;5056652;28;20052;-84
2021/11/23 09:19:58;;;;;;;0.30;0.30;;;;;;;5.58;100.00;101957.34;5059373;28;20064;-84
2021/11/23 09:22:32;;;;;;;0.30;0.30;;;;;;;5.57;100.00;101951.09;5065528;28;20056;-84
2021/11/23 09:25:05;;;;;;;0.25;0.25;;;;;;;5.74;100.00;101956.00;5059586;28;20052;-85
2021/11/23 09:27:35;;;;;;;0.28;0.28;;;;;;;5.81;100.00;101962.19;5061097;28;20067;-81
2021/11/23 09:30:11;;;;;;;0.20;0.20;;;;;;;5.82;100.00;101971.97;5062319;28;20064;-83
2021/11/23 09:32:47;;;;;;;0.30;0.30;;;;;;;5.93;100.00;101970.44;5062892;28;20060;-83
2021/11/23 09:35:22;;;;;;;0.30;0.30;;;;;;;5.94;100.00;101969.41;5059831;28;20412;-84
2021/11/23 09:37:56;;;;;;;0.30;0.30;;;;;;;6.01;100.00;101967.53;5062489;28;20052;-84
2021/11/23 09:40:31;;;;;;;0.30;0.30;;;;;;;6.01;100.00;101970.22;5058820;28;20056;-83
2021/11/23 09:43:05;;;;;;;0.30;0.30;;;;;;;6.06;100.00;101967.72;5058561;28;20057;-83
2021/11/23 09:45:39;;;;;;;0.30;0.30;;;;;;;6.03;100.00;101965.41;5057651;28;20053;-83
2021/11/23 09:48:13;;;;;;;0.30;0.30;;;;;;;6.10;100.00;101971.63;5057517;28;20488;-82
2021/11/23 09:50:46;;;;;;;0.30;0.30;;;;;;;6.18;100.00;101970.53;5059799;28;20052;-83
2021/11/23 09:53:21;;;;;;;0.30;0.30;;;;;;;6.20;100.00;101971.16;5058808;28;20075;-83
2021/11/23 09:55:54;;;;;;;0.30;0.30;;;;;;;6.28;100.00;101962.78;5074417;28;20049;-83
2021/11/23 09:58:30;;;;;;;0.30;0.30;;;;;;;6.27;100.00;101963.81;5058833;28;20067;-83
2021/11/23 10:01:04;;;;;;;0.20;0.20;;;;;;;6.29;100.00;101969.81;5061183;28;20053;-83
2021/11/23 10:03:39;;;;;;;0.28;0.28;;;;;;;6.29;100.00;101956.28;5060877;28;20063;-82
2021/11/23 10:06:15;;;;;;;0.20;0.20;;;;;;;6.28;100.00;101970.88;5057431;28;20741;-83
2021/11/23 10:08:50;;;;;;;0.30;0.30;;;;;;;6.37;100.00;101981.44;5060703;28;20048;-82
2021/11/23 10:11:24;;;;;;;0.20;0.20;;;;;;;6.35;100.00;101978.91;5057885;28;20067;-83
2021/11/23 10:13:55;;;;;;;0.20;0.20;;;;;;;6.11;100.00;101940.00;5060493;28;20056;-83
2021/11/23 10:16:39;;;;;;;0.20;0.20;;;;;;;6.41;100.00;101972.66;5059139;28;20052;-84
2021/11/23 10:19:15;;;;;;;0.20;0.20;;;;;;;6.42;100.00;101968.91;5061680;28;20048;-84
2021/11/23 10:21:49;;;;;;;0.20;0.20;;;;;;;6.41;100.00;101967.25;5056689;28;20060;-83
2021/11/23 10:24:23;;;;;;;0.20;0.20;;;;;;;6.56;100.00;101966.91;5058841;28;20056;-83
2021/11/23 10:26:56;;;;;;;0.28;0.28;;;;;;;6.54;100.00;101971.69;5064126;28;20059;-83
2021/11/23 10:29:31;;;;;;;0.20;0.20;;;;;;;6.55;100.00;101965.25;5058705;28;20507;-83
2021/11/23 10:32:14;;;;;;;0.30;0.30;;;;;;;6.59;100.00;101977.28;5056317;28;20068;-82
2021/11/23 10:34:48;;;;;;;0.20;0.20;;;;;;;6.62;100.00;101971.44;5060007;28;20056;-83
2021/11/23 10:37:28;;;;;;;0.20;0.20;;;;;;;6.58;100.00;101967.50;5053953;28;20048;-83
2021/11/23 10:40:10;;;;;;;0.25;0.25;;;;;;;6.60;100.00;101972.69;5055887;28;20044;-83
2021/11/23 10:42:44;;;;;;;0.30;0.30;;;;;;;6.61;100.00;101956.25;5055129;28;20051;-82
2021/11/23 10:45:14;;;;;;;0.25;0.25;;;;;;;6.76;100.00;101955.09;5057231;28;20077;-81
2021/11/23 10:47:49;;;;;;;0.30;0.30;;;;;;;6.66;100.00;101966.41;5056575;28;20067;-82
2021/11/23 10:50:22;;;;;;;0.20;0.20;;;;;;;6.84;100.00;101953.97;5059213;28;20041;-82
2021/11/23 10:52:51;;;;;;;0.30;0.30;;;;;;;6.91;100.00;101955.56;5057689;28;20052;-82
2021/11/23 10:55:31;;;;;;;0.20;0.20;;;;;;;6.95;100.00;101958.66;5058282;28;20048;-82
2021/11/23 10:58:01;;;;;;;0.30;0.30;;;;;;;6.85;100.00;101944.78;5060417;28;20052;-84
2021/11/23 11:00:33;;;;;;;0.30;0.30;;;;;;;7.03;100.00;101952.94;5058549;28;20146;-83
2021/11/23 11:03:07;;;;;;;0.20;0.20;;;;;;;7.03;100.00;101962.94;5073263;28;20068;-83
2021/11/23 11:05:42;;;;;;;0.30;0.30;;;;;;;7.14;100.00;101945.97;5056379;28;20056;-83
2021/11/23 11:08:21;;;;;;;0.20;0.20;;;;;;;7.10;100.00;101944.75;5054959;28;20130;-83
2021/11/23 11:10:55;;;;;;;0.20;0.20;;;;;;;7.37;100.00;101953.38;5057942;28;20740;-82
2021/11/23 11:13:29;;;;;;;0.30;0.30;;;;;;;7.39;100.00;101958.56;5053360;28;20052;-82
2021/11/23 11:16:00;;;;;;;0.17;0.17;;;;;;;7.36;100.00;101948.19;5057595;28;20468;-83
2021/11/23 11:18:28;;;;;;;0.20;0.20;;;;;;;7.49;100.00;101959.69;5056341;28;20059;-83
2021/11/23 11:20:59;;;;;;;0.22;0.22;;;;;;;7.52;100.00;101953.00;5060493;28;20485;-86
2021/11/23 11:23:37;;;;;;;0.28;0.28;;;;;;;7.54;100.00;101955.47;5062862;28;20049;-86
2021/11/23 11:26:19;;;;;;;0.30;0.30;;;;;;;7.63;100.00;101957.63;5058014;28;20057;-82
2021/11/23 11:28:52;;;;;;;0.20;0.20;;;;;;;7.51;100.00;101958.63;5053478;28;20048;-82
2021/11/23 11:31:37;;;;;;;0.20;0.20;;;;;;;7.48;100.00;101966.19;5052794;28;20821;-83
2021/11/23 11:34:23;;;;;;;0.25;0.25;;;;;;;7.40;100.00;101952.09;5053548;28;20060;-83
2021/11/23 11:37:12;;;;;;;0.20;0.20;;;;;;;7.47;100.00;101964.53;5056223;28;20063;-83
2021/11/23 11:39:52;;;;;;;0.30;0.30;;;;;;;7.48;100.00;101959.91;5050895;28;20059;-82
2021/11/23 11:42:47;;;;;;;0.20;0.20;;;;;;;7.54;100.00;101958.19;5052369;28;20049;-83
2021/11/23 11:45:24;;;;;;;0.22;0.22;;;;;;;7.58;100.00;101957.50;5052051;28;20048;-83
2021/11/23 11:47:59;;;;;;;0.25;0.25;;;;;;;7.48;100.00;101949.94;5061031;28;20048;-82
2021/11/23 11:50:28;;;;;;;0.20;0.20;;;;;;;7.53;100.00;101957.34;5053518;28;20079;-84